createdAt,value
2023-02-09T00:01:29.089Z,4.63
2023-02-09T00:03:56.183Z,5.38
2023-02-09T00:06:24.365Z,5.57
2023-02-09T00:08:51.338Z,5.10
2023-02-09T00:11:48.369Z,4.57
2023-02-09T00:14:16.911Z,4.78
2023-02-09T00:16:43.840Z,5.05
2023-02-09T00:19:12.034Z,4.72
2023-02-09T00:21:40.199Z,4.45
2023-02-09T00:24:08.003Z,5.07
2023-02-09T00:26:34.616Z,4.85
2023-02-09T00:29:01.301Z,4.85
2023-02-09T00:31:28.181Z,4.88
2023-02-09T00:33:54.950Z,4.88
2023-02-09T00:36:21.757Z,4.70
2023-02-09T00:38:48.469Z,4.72
2023-02-09T00:41:16.539Z,4.57
2023-02-09T00:43:43.203Z,4.60
2023-02-09T00:46:10.160Z,4.93
2023-02-09T00:48:37.117Z,5.05
2023-02-09T00:51:04.157Z,4.50
2023-02-09T00:53:30.946Z,4.30
2023-02-09T00:55:57.622Z,5.35
2023-02-09T00:58:24.362Z,4.13
2023-02-09T01:00:51.032Z,4.10
2023-02-09T01:03:17.800Z,4.90
2023-02-09T01:05:44.540Z,4.22
2023-02-09T01:08:11.648Z,4.50
2023-02-09T01:10:39.407Z,4.57
2023-02-09T01:13:06.904Z,5.18
2023-02-09T01:15:34.076Z,4.25
2023-02-09T01:18:00.857Z,4.05
2023-02-09T01:20:28.305Z,4.38
2023-02-09T01:22:55.044Z,4.05
2023-02-09T01:25:22.014Z,4.45
2023-02-09T01:27:48.988Z,4.88
2023-02-09T01:30:16.168Z,4.72
2023-02-09T01:32:43.133Z,4.60
2023-02-09T01:35:10.808Z,4.50
2023-02-09T01:37:37.940Z,5.15
2023-02-09T01:40:05.677Z,4.18
2023-02-09T01:42:32.523Z,4.20
2023-02-09T01:45:30.478Z,4.18
2023-02-09T01:48:03.704Z,4.30
2023-02-09T01:50:36.174Z,4.00
2023-02-09T01:55:34.743Z,3.88
2023-02-09T01:58:13.593Z,3.80
2023-02-09T02:00:40.587Z,4.85
2023-02-09T02:03:12.514Z,4.32
2023-02-09T02:05:42.679Z,4.10
2023-02-09T02:08:26.509Z,4.60
2023-02-09T02:10:54.252Z,3.85
2023-02-09T02:13:21.400Z,4.15
2023-02-09T02:16:06.232Z,4.60
2023-02-09T02:18:45.781Z,4.10
2023-02-09T02:21:24.788Z,4.75
2023-02-09T02:24:21.116Z,4.10
2023-02-09T02:26:58.352Z,4.38
2023-02-09T02:29:43.828Z,4.38
2023-02-09T02:32:36.780Z,4.30
2023-02-09T02:35:26.703Z,4.40
2023-02-09T02:38:14.554Z,3.70
2023-02-09T02:41:22.707Z,4.80
2023-02-09T02:44:05.772Z,3.75
2023-02-09T02:46:38.137Z,4.45
2023-02-09T02:51:43.184Z,4.68
2023-02-09T02:54:16.573Z,3.55
2023-02-09T02:56:47.514Z,4.35
2023-02-09T02:59:18.909Z,4.68
2023-02-09T03:02:02.171Z,3.85
2023-02-09T03:04:32.601Z,3.55
2023-02-09T03:06:59.416Z,4.30
2023-02-09T03:09:26.101Z,3.90
2023-02-09T03:11:57.563Z,3.88
2023-02-09T03:14:41.189Z,4.13
2023-02-09T03:17:14.174Z,3.70
2023-02-09T03:19:46.727Z,4.03
2023-02-09T03:22:30.854Z,4.05
2023-02-09T03:25:31.314Z,3.63
2023-02-09T03:28:04.548Z,3.92
2023-02-09T03:30:33.667Z,4.18
2023-02-09T03:33:01.734Z,4.15
2023-02-09T03:35:36.319Z,3.70
2023-02-09T03:38:07.437Z,3.80
2023-02-09T03:40:34.933Z,4.35
2023-02-09T03:43:01.898Z,4.97
2023-02-09T03:45:28.601Z,4.65
2023-02-09T03:47:55.226Z,5.05
2023-02-09T03:50:21.890Z,5.90
2023-02-09T03:52:48.530Z,5.25
2023-02-09T03:55:15.264Z,4.70
2023-02-09T03:57:42.075Z,5.53
2023-02-09T04:00:09.763Z,5.28
2023-02-09T04:02:41.707Z,5.05
2023-02-09T04:05:08.889Z,5.10
2023-02-09T04:07:35.705Z,4.60
2023-02-09T04:10:03.449Z,4.78
2023-02-09T04:12:30.157Z,4.32
2023-02-09T04:14:56.946Z,4.82
2023-02-09T04:17:23.602Z,4.07
2023-02-09T04:19:50.272Z,4.18
2023-02-09T04:22:16.910Z,4.43
2023-02-09T04:24:44.203Z,4.25
2023-02-09T04:27:10.844Z,4.70
2023-02-09T04:29:37.499Z,5.00
2023-02-09T04:32:04.401Z,4.00
2023-02-09T04:34:31.082Z,4.95
2023-02-09T04:36:57.749Z,4.10
2023-02-09T04:39:24.488Z,4.50
2023-02-09T04:41:51.078Z,5.38
2023-02-09T04:44:17.792Z,4.00
2023-02-09T04:46:45.768Z,5.22
2023-02-09T04:49:12.778Z,4.57
2023-02-09T04:51:39.410Z,5.22
2023-02-09T04:54:06.067Z,5.32
2023-02-09T04:56:32.714Z,4.65
2023-02-09T04:59:18.002Z,4.80
2023-02-09T05:01:44.628Z,4.22
2023-02-09T05:04:11.301Z,5.05
2023-02-09T05:06:37.938Z,5.18
2023-02-09T05:09:04.623Z,4.80
2023-02-09T05:11:31.354Z,4.65
2023-02-09T05:13:58.092Z,4.60
2023-02-09T05:16:24.761Z,4.45
2023-02-09T05:18:51.554Z,4.65
2023-02-09T05:21:18.187Z,5.72
2023-02-09T05:23:44.833Z,4.55
2023-02-09T05:26:11.461Z,4.95
2023-02-09T05:28:38.100Z,5.30
2023-02-09T05:31:04.902Z,4.45
2023-02-09T05:33:31.641Z,4.95
2023-02-09T05:35:58.322Z,5.05
2023-02-09T05:38:25.125Z,5.05
2023-02-09T05:40:51.783Z,5.30
2023-02-09T05:43:19.078Z,5.22
2023-02-09T05:45:46.709Z,4.88
2023-02-09T05:48:13.511Z,5.55
2023-02-09T05:50:40.177Z,5.22
2023-02-09T05:53:07.807Z,5.22
2023-02-09T05:55:34.460Z,5.28
2023-02-09T05:58:01.072Z,5.30
2023-02-09T06:00:29.758Z,4.72
2023-02-09T06:02:57.021Z,4.10
2023-02-09T06:05:23.845Z,4.43
2023-02-09T06:07:51.045Z,4.95
2023-02-09T06:10:18.820Z,4.93
2023-02-09T06:12:46.110Z,4.80
2023-02-09T06:15:13.583Z,4.95
2023-02-09T06:17:40.216Z,4.60
2023-02-09T06:20:07.166Z,5.25
2023-02-09T06:22:34.210Z,5.20
2023-02-09T06:25:00.910Z,4.65
2023-02-09T06:27:27.682Z,4.43
2023-02-09T06:29:54.394Z,4.97
2023-02-09T06:32:21.017Z,5.50
2023-02-09T06:34:47.616Z,4.60
2023-02-09T06:37:14.262Z,4.43
2023-02-09T06:39:40.916Z,4.78
2023-02-09T06:42:07.841Z,7.85
2023-02-09T06:44:34.472Z,7.88
2023-02-09T06:47:01.060Z,8.02
2023-02-09T06:49:27.745Z,8.98
2023-02-09T06:51:54.493Z,8.90
2023-02-09T06:54:21.990Z,9.63
2023-02-09T06:56:48.814Z,11.43
2023-02-09T06:59:15.621Z,13.85
2023-02-09T07:01:42.370Z,17.77
2023-02-09T07:04:09.048Z,13.13
2023-02-09T07:06:35.809Z,11.40
2023-02-09T07:09:02.534Z,11.90
2023-02-09T07:11:30.565Z,13.88
2023-02-09T07:13:57.331Z,16.30
2023-02-09T07:16:24.316Z,16.75
2023-02-09T07:18:51.065Z,18.40
2023-02-09T07:21:19.993Z,15.27
2023-02-09T07:23:47.720Z,9.52
2023-02-09T07:26:17.023Z,10.13
2023-02-09T07:28:44.095Z,7.78
2023-02-09T07:31:12.803Z,10.57
2023-02-09T07:33:39.729Z,16.20
2023-02-09T07:36:09.592Z,17.20
2023-02-09T07:38:37.010Z,17.25
2023-02-09T07:41:05.500Z,16.50
2023-02-09T07:43:33.298Z,13.63
2023-02-09T07:46:01.595Z,11.15
2023-02-09T07:48:28.647Z,15.20
2023-02-09T07:50:55.710Z,13.82
2023-02-09T07:53:22.475Z,13.50
2023-02-09T07:55:49.177Z,14.77
2023-02-09T07:58:18.331Z,12.18
2023-02-09T08:00:46.244Z,10.23
2023-02-09T08:03:15.215Z,8.82
2023-02-09T08:05:48.708Z,8.13
2023-02-09T08:08:15.495Z,7.55
2023-02-09T08:10:42.958Z,7.18
2023-02-09T08:13:10.359Z,6.88
2023-02-09T08:15:40.048Z,7.45
2023-02-09T08:18:16.111Z,7.78
2023-02-09T08:20:44.165Z,7.20
2023-02-09T08:23:22.713Z,6.88
2023-02-09T08:25:51.631Z,8.30
2023-02-09T08:28:31.837Z,7.38
2023-02-09T08:31:05.230Z,7.32
2023-02-09T08:33:32.090Z,8.80
2023-02-09T08:35:58.890Z,8.48
2023-02-09T08:38:25.577Z,9.20
2023-02-09T08:40:52.198Z,9.43
2023-02-09T08:43:18.851Z,9.68
2023-02-09T08:45:45.858Z,10.77
2023-02-09T08:48:13.001Z,9.88
2023-02-09T08:50:40.173Z,9.55
2023-02-09T08:53:07.059Z,10.55
2023-02-09T08:55:34.547Z,10.02
2023-02-09T08:58:01.255Z,9.82
2023-02-09T09:00:28.468Z,10.10
2023-02-09T09:02:55.150Z,9.10
2023-02-09T09:05:21.820Z,9.75
2023-02-09T09:07:48.483Z,9.93
2023-02-09T09:10:15.233Z,10.70
2023-02-09T09:12:41.929Z,10.73
2023-02-09T09:15:08.969Z,10.23
2023-02-09T09:17:35.832Z,11.35
2023-02-09T09:20:02.497Z,11.27
2023-02-09T09:22:29.233Z,10.73
2023-02-09T09:24:55.906Z,11.23
2023-02-09T09:27:22.600Z,11.70
2023-02-09T09:29:49.686Z,11.25
2023-02-09T09:32:16.602Z,12.05
2023-02-09T09:34:43.586Z,10.48
2023-02-09T09:37:10.190Z,11.00
2023-02-09T09:39:36.808Z,11.07
2023-02-09T09:42:06.121Z,10.50
2023-02-09T09:44:43.511Z,11.07
2023-02-09T09:47:19.083Z,11.93
2023-02-09T09:49:46.333Z,12.93
2023-02-09T09:52:29.368Z,12.65
2023-02-09T09:54:57.944Z,11.80
2023-02-09T09:57:27.575Z,12.27
2023-02-09T09:59:56.172Z,12.85
2023-02-09T10:02:31.395Z,12.63
2023-02-09T10:05:14.381Z,12.10
2023-02-09T10:07:43.102Z,10.95
2023-02-09T10:10:23.394Z,12.07
2023-02-09T10:12:53.327Z,10.98
2023-02-09T10:15:32.711Z,11.15
2023-02-09T10:18:00.402Z,11.18
2023-02-09T10:20:50.245Z,12.18
2023-02-09T10:23:18.185Z,13.25
2023-02-09T10:25:47.899Z,12.25
2023-02-09T10:28:23.166Z,12.45
2023-02-09T10:30:56.443Z,11.25
2023-02-09T10:33:23.297Z,11.52
2023-02-09T10:35:53.737Z,11.80
2023-02-09T10:38:24.137Z,11.77
2023-02-09T10:40:51.627Z,12.65
2023-02-09T10:43:34.465Z,12.20
2023-02-09T10:46:10.389Z,12.35
2023-02-09T10:48:43.036Z,11.60
2023-02-09T10:51:29.084Z,12.43
2023-02-09T10:53:55.908Z,12.15
2023-02-09T10:56:29.394Z,13.50
2023-02-09T10:59:01.660Z,13.73
2023-02-09T11:01:33.072Z,13.23
2023-02-09T11:04:06.068Z,13.87
2023-02-09T11:06:56.473Z,13.60
2023-02-09T11:09:44.826Z,13.40
2023-02-09T11:12:12.589Z,13.68
2023-02-09T11:14:41.964Z,12.43
2023-02-09T11:17:11.612Z,13.73
2023-02-09T11:19:44.322Z,13.95
2023-02-09T11:22:28.963Z,12.43
2023-02-09T11:25:25.147Z,12.65
2023-02-09T11:28:10.632Z,13.95
2023-02-09T11:31:13.029Z,13.02
2023-02-09T11:33:45.835Z,13.85
2023-02-09T11:36:38.497Z,13.13
2023-02-09T11:39:10.324Z,13.32
2023-02-09T11:42:02.077Z,13.98
2023-02-09T11:44:57.685Z,13.73
2023-02-09T11:47:31.041Z,14.00
2023-02-09T11:50:02.001Z,13.60
2023-02-09T11:52:37.598Z,13.50
2023-02-09T11:55:22.632Z,14.75
2023-02-09T11:57:54.691Z,13.43
2023-02-09T12:00:25.546Z,13.77
2023-02-09T12:05:24.520Z,11.68
2023-02-09T12:08:34.517Z,13.40
2023-02-09T12:11:17.126Z,13.20
2023-02-09T12:16:32.038Z,11.88
2023-02-09T12:18:58.889Z,13.07
2023-02-09T12:21:34.636Z,13.30
2023-02-09T12:24:01.916Z,13.00
2023-02-09T12:26:42.904Z,12.93
2023-02-09T12:29:35.289Z,13.77
2023-02-09T12:32:04.892Z,13.30
2023-02-09T12:34:42.170Z,13.70
2023-02-09T12:37:14.826Z,14.30
2023-02-09T12:40:07.886Z,12.43
2023-02-09T12:42:43.096Z,12.98
2023-02-09T12:45:34.849Z,12.52
2023-02-09T12:48:07.780Z,14.23
2023-02-09T12:50:43.794Z,13.70
2023-02-09T12:53:22.716Z,13.13
2023-02-09T12:56:09.033Z,13.95
2023-02-09T12:58:44.891Z,13.55
2023-02-09T13:01:15.118Z,13.32
2023-02-09T13:03:56.388Z,13.35
2023-02-09T13:06:35.360Z,13.43
2023-02-09T13:09:07.552Z,13.73
2023-02-09T13:12:05.705Z,12.13
2023-02-09T13:14:32.796Z,12.40
2023-02-09T13:17:08.438Z,11.85
2023-02-09T13:19:52.861Z,12.63
2023-02-09T13:22:41.034Z,12.98
2023-02-09T13:25:33.452Z,10.73
2023-02-09T13:28:27.524Z,15.75
2023-02-09T13:30:54.243Z,15.93
2023-02-09T13:33:30.799Z,16.35
2023-02-09T13:36:00.506Z,15.88
2023-02-09T13:38:31.316Z,17.73
2023-02-09T13:40:58.521Z,15.18
2023-02-09T13:43:34.837Z,17.58
2023-02-09T13:46:02.520Z,15.70
2023-02-09T13:48:36.637Z,16.05
2023-02-09T13:51:15.822Z,17.05
2023-02-09T13:53:56.358Z,17.25
2023-02-09T13:56:23.644Z,14.38
2023-02-09T13:58:50.789Z,16.50
2023-02-09T14:01:26.399Z,17.35
2023-02-09T14:04:17.472Z,17.00
2023-02-09T14:06:58.334Z,17.35
2023-02-09T14:09:39.018Z,15.73
2023-02-09T14:12:15.367Z,16.02
2023-02-09T14:15:07.907Z,17.30
2023-02-09T14:17:35.360Z,16.90
2023-02-09T14:20:03.319Z,16.08
2023-02-09T14:22:33.635Z,16.50
2023-02-09T14:25:00.528Z,16.63
2023-02-09T14:27:29.600Z,17.48
2023-02-09T14:29:56.670Z,16.27
2023-02-09T14:32:45.341Z,17.98
2023-02-09T14:35:19.910Z,17.88
2023-02-09T14:37:48.590Z,18.20
2023-02-09T14:40:23.371Z,18.27
2023-02-09T14:43:00.555Z,17.25
2023-02-09T14:45:27.207Z,17.50
2023-02-09T14:47:53.901Z,18.13
2023-02-09T14:50:23.588Z,17.27
2023-02-09T14:52:54.406Z,18.60
2023-02-09T14:55:25.549Z,17.60
2023-02-09T14:57:52.407Z,18.95
2023-02-09T15:00:22.433Z,17.65
2023-02-09T15:02:50.432Z,16.77
2023-02-09T15:05:17.936Z,14.95
2023-02-09T15:07:48.192Z,13.93
2023-02-09T15:10:32.375Z,11.95
2023-02-09T15:13:00.529Z,11.80
2023-02-09T15:15:27.282Z,11.82
2023-02-09T15:17:55.331Z,11.35
2023-02-09T15:20:26.438Z,12.38
2023-02-09T15:22:54.679Z,10.30
2023-02-09T15:25:22.644Z,9.90
2023-02-09T15:27:57.479Z,11.07
2023-02-09T15:30:27.634Z,11.02
2023-02-09T15:32:54.356Z,11.93
2023-02-09T15:35:25.786Z,11.85
2023-02-09T15:38:00.340Z,11.13
2023-02-09T15:40:52.576Z,11.50
2023-02-09T15:43:39.954Z,10.25
2023-02-09T15:46:27.468Z,10.52
2023-02-09T15:48:54.423Z,11.20
2023-02-09T15:51:23.406Z,11.20
2023-02-09T15:53:50.108Z,10.82
2023-02-09T15:56:16.735Z,10.55
2023-02-09T15:58:45.390Z,9.88
2023-02-09T16:01:14.997Z,10.48
2023-02-09T16:03:41.636Z,11.13
2023-02-09T16:06:15.959Z,11.38
2023-02-09T16:08:43.539Z,10.15
2023-02-09T16:11:24.247Z,11.27
2023-02-09T16:13:51.233Z,10.10
2023-02-09T16:16:18.112Z,9.95
2023-02-09T16:18:46.748Z,9.98
2023-02-09T16:21:23.556Z,11.07
2023-02-09T16:23:52.571Z,10.20
2023-02-09T16:26:19.922Z,9.55
2023-02-09T16:28:47.447Z,10.95
2023-02-09T16:31:14.307Z,10.85
2023-02-09T16:33:43.000Z,11.48
2023-02-09T16:36:28.373Z,11.63
2023-02-09T16:38:55.038Z,10.73
2023-02-09T16:41:40.514Z,10.73
2023-02-09T16:44:33.645Z,10.43
2023-02-09T16:47:01.386Z,10.32
2023-02-09T16:49:31.165Z,11.20
2023-02-09T16:52:01.057Z,12.10
2023-02-09T16:54:29.660Z,14.38
2023-02-09T16:56:56.645Z,16.95
2023-02-09T16:59:23.534Z,13.75
2023-02-09T17:01:50.387Z,13.30
2023-02-09T17:04:17.370Z,13.32
2023-02-09T17:06:45.225Z,12.98
2023-02-09T17:09:16.200Z,12.20
2023-02-09T17:11:42.895Z,12.63
2023-02-09T17:14:09.649Z,11.43
2023-02-09T17:16:38.683Z,12.38
2023-02-09T17:19:12.353Z,13.70
2023-02-09T17:21:40.287Z,13.93
2023-02-09T17:24:14.237Z,13.43
2023-02-09T17:26:40.925Z,13.38
2023-02-09T17:29:09.243Z,12.80
2023-02-09T17:31:51.943Z,12.02
2023-02-09T17:34:20.649Z,10.63
2023-02-09T17:36:47.435Z,11.45
2023-02-09T17:39:14.204Z,18.83
2023-02-09T17:41:46.500Z,14.23
2023-02-09T17:44:39.166Z,13.23
2023-02-09T17:47:17.683Z,13.77
2023-02-09T17:49:44.728Z,13.57
2023-02-09T17:52:19.250Z,15.82
2023-02-09T17:54:46.575Z,16.25
2023-02-09T17:57:17.380Z,17.92
2023-02-09T17:59:44.105Z,17.90
2023-02-09T18:02:15.856Z,17.30
2023-02-09T18:04:42.908Z,16.55
2023-02-09T18:07:10.452Z,17.50
2023-02-09T18:09:37.249Z,18.63
2023-02-09T18:12:13.655Z,21.40
2023-02-09T18:14:40.315Z,22.00
2023-02-09T18:17:06.974Z,23.20
2023-02-09T18:19:33.675Z,18.70
2023-02-09T18:22:02.044Z,19.15
2023-02-09T18:24:32.077Z,17.52
2023-02-09T18:26:59.368Z,17.35
2023-02-09T18:29:29.458Z,14.43
2023-02-09T18:31:58.554Z,13.85
2023-02-09T18:34:26.047Z,16.08
2023-02-09T18:36:52.658Z,24.05
2023-02-09T18:39:19.342Z,22.42
2023-02-09T18:41:48.395Z,19.30
2023-02-09T18:44:15.022Z,16.95
2023-02-09T18:46:42.786Z,16.40
2023-02-09T18:49:12.237Z,19.55
2023-02-09T18:51:38.926Z,17.08
2023-02-09T18:54:05.782Z,17.17
2023-02-09T18:56:32.612Z,16.52
2023-02-09T18:58:59.257Z,17.13
2023-02-09T19:01:26.033Z,20.38
2023-02-09T19:03:54.203Z,19.80
2023-02-09T19:06:21.955Z,19.90
2023-02-09T19:08:50.451Z,21.33
2023-02-09T19:11:19.954Z,19.10
2023-02-09T19:14:06.731Z,16.73
2023-02-09T19:16:34.092Z,18.98
2023-02-09T19:19:00.882Z,18.55
2023-02-09T19:21:28.244Z,18.90
2023-02-09T19:23:54.931Z,18.20
2023-02-09T19:26:21.588Z,16.80
2023-02-09T19:28:48.691Z,19.27
2023-02-09T19:31:18.374Z,18.58
2023-02-09T19:33:45.142Z,17.15
2023-02-09T19:36:12.398Z,17.38
2023-02-09T19:38:39.018Z,16.08
2023-02-09T19:41:12.506Z,15.23
2023-02-09T19:43:42.390Z,15.07
2023-02-09T19:46:10.305Z,14.23
2023-02-09T19:48:40.301Z,14.45
2023-02-09T19:51:07.805Z,13.43
2023-02-09T19:53:35.161Z,13.40
2023-02-09T19:56:02.337Z,13.82
2023-02-09T19:58:29.156Z,13.90
2023-02-09T20:00:56.194Z,14.18
2023-02-09T20:03:24.183Z,14.48
2023-02-09T20:05:51.469Z,12.98
2023-02-09T20:08:19.907Z,12.55
2023-02-09T20:10:47.155Z,14.57
2023-02-09T20:13:15.293Z,12.45
2023-02-09T20:15:43.695Z,11.95
2023-02-09T20:18:12.054Z,13.52
2023-02-09T20:20:41.454Z,11.35
2023-02-09T20:23:08.563Z,11.93
2023-02-09T20:25:35.282Z,12.82
2023-02-09T20:28:01.989Z,12.65
2023-02-09T20:30:28.631Z,12.77
2023-02-09T20:32:55.255Z,12.15
2023-02-09T20:35:21.993Z,12.43
2023-02-09T20:37:48.649Z,13.10
2023-02-09T20:40:15.473Z,12.02
2023-02-09T20:43:00.822Z,12.27
2023-02-09T20:45:46.162Z,12.63
2023-02-09T20:48:13.817Z,11.60
2023-02-09T20:50:40.511Z,12.07
2023-02-09T20:53:07.200Z,11.15
2023-02-09T20:55:34.012Z,11.90
2023-02-09T20:58:00.709Z,12.38
2023-02-09T21:00:27.770Z,11.30
2023-02-09T21:02:54.470Z,12.73
2023-02-09T21:05:21.141Z,12.52
2023-02-09T21:07:50.340Z,12.50
2023-02-09T21:10:17.025Z,12.43
2023-02-09T21:12:43.765Z,12.65
2023-02-09T21:15:10.398Z,12.73
2023-02-09T21:17:37.197Z,14.32
2023-02-09T21:20:06.015Z,15.13
2023-02-09T21:22:32.689Z,15.88
2023-02-09T21:24:59.439Z,15.77
2023-02-09T21:27:26.278Z,15.07
2023-02-09T21:29:53.025Z,15.38
2023-02-09T21:32:19.748Z,12.35
2023-02-09T21:34:46.809Z,13.05
2023-02-09T21:37:14.108Z,12.38
2023-02-09T21:39:41.355Z,12.45
2023-02-09T21:42:28.807Z,12.40
2023-02-09T21:44:55.816Z,11.75
2023-02-09T21:47:30.589Z,12.35
2023-02-09T21:49:57.566Z,11.73
2023-02-09T21:52:24.794Z,11.98
2023-02-09T21:54:52.113Z,12.07
2023-02-09T21:57:18.863Z,13.52
2023-02-09T21:59:45.793Z,12.48
2023-02-09T22:02:17.728Z,13.85
2023-02-09T22:04:45.756Z,14.70
2023-02-09T22:07:13.506Z,16.10
2023-02-09T22:09:40.824Z,15.82
2023-02-09T22:12:07.859Z,14.93
2023-02-09T22:14:34.609Z,15.40
2023-02-09T22:17:01.353Z,15.23
2023-02-09T22:19:28.186Z,14.65
2023-02-09T22:21:57.689Z,13.82
2023-02-09T22:24:24.988Z,13.75
2023-02-09T22:26:51.648Z,13.60
2023-02-09T22:29:18.786Z,13.13
2023-02-09T22:31:45.818Z,12.27
2023-02-09T22:34:12.919Z,13.18
2023-02-09T22:36:39.903Z,10.70
2023-02-09T22:39:07.617Z,13.10
2023-02-09T22:41:35.081Z,12.30
2023-02-09T22:44:07.304Z,10.43
2023-02-09T22:46:39.103Z,10.90
2023-02-09T22:49:15.564Z,12.30
2023-02-09T22:51:42.379Z,12.75
2023-02-09T22:54:09.721Z,12.05
2023-02-09T22:56:36.510Z,12.93
2023-02-09T22:59:03.558Z,13.80
2023-02-09T23:01:30.543Z,15.00
2023-02-09T23:03:57.712Z,14.60
2023-02-09T23:06:27.421Z,14.05
2023-02-09T23:08:56.101Z,12.90
2023-02-09T23:11:23.364Z,12.30
2023-02-09T23:14:00.456Z,12.30
2023-02-09T23:16:33.993Z,10.52
2023-02-09T23:19:06.402Z,10.15
2023-02-09T23:21:36.485Z,10.98
2023-02-09T23:24:03.716Z,11.40
2023-02-09T23:26:30.409Z,11.70
2023-02-09T23:28:59.548Z,10.80
2023-02-09T23:31:27.048Z,11.07
2023-02-09T23:33:54.219Z,11.77
2023-02-09T23:36:25.820Z,10.57
2023-02-09T23:38:54.785Z,11.30
2023-02-09T23:41:22.489Z,12.05
2023-02-09T23:43:49.887Z,11.00
2023-02-09T23:46:19.705Z,11.65
2023-02-09T23:48:46.941Z,10.57
2023-02-09T23:51:18.349Z,13.00
2023-02-09T23:53:46.650Z,10.38
2023-02-09T23:56:16.053Z,11.18
2023-02-09T23:58:45.928Z,12.10
